Time;durP1;ratioP1;P1;durP2;ratioP2;P2;SDS_P1;SDS_P2;PMS_P1;PMS_P2;Temp;Humidity;BMP_temperature;BMP_pressure;BME280_temperature;BME280_humidity;BME280_pressure;Samples;Min_cycle;Max_cycle;Signal;HPM_P1;HPM_P2
2023/10/16 00:02:16;;;;;;;11.70;5.20;;;;;;;20.54;58.21;99474.69;109953;1286;21930;-59
2023/10/16 00:04:45;;;;;;;9.80;4.80;;;;;;;20.54;58.11;99473.46;109960;1279;21961;-68
2023/10/16 00:07:13;;;;;;;10.70;5.20;;;;;;;20.50;57.97;99472.46;109961;1275;21943;-69
2023/10/16 00:09:40;;;;;;;10.50;4.90;;;;;;;20.46;58.00;99467.39;109916;1279;22004;-69
2023/10/16 00:12:07;;;;;;;9.90;5.20;;;;;;;20.43;57.95;99467.96;109923;1282;21963;-57
2023/10/16 00:14:35;;;;;;;8.50;5.30;;;;;;;20.37;57.95;99472.78;109954;1279;22008;-70
2023/10/16 00:17:08;;;;;;;12.40;5.30;;;;;;;20.33;57.96;99474.46;109964;1282;21874;-59
2023/10/16 00:19:37;;;;;;;10.10;5.00;;;;;;;20.30;57.79;99474.03;109973;1273;22000;-69
2023/10/16 00:22:13;;;;;;;7.50;4.50;;;;;;;20.28;57.82;99481.06;109911;1286;21938;-57
2023/10/16 00:24:45;;;;;;;9.50;4.00;;;;;;;20.26;57.60;99484.23;109973;1279;22008;-69
2023/10/16 00:27:14;;;;;;;9.50;3.50;;;;;;;20.23;57.41;99481.05;109977;1286;21958;-57
2023/10/16 00:29:43;;;;;;;12.80;4.00;;;;;;;20.18;57.25;99486.36;109966;1279;21935;-67
2023/10/16 00:32:12;;;;;;;9.30;4.00;;;;;;;20.13;57.24;99492.91;109952;1286;22345;-67
2023/10/16 00:34:38;;;;;;;12.50;3.40;;;;;;;20.09;56.93;99496.96;109932;1276;22143;-68
2023/10/16 00:37:10;;;;;;;8.80;3.50;;;;;;;20.03;56.70;99503.02;109931;1284;22388;-67
2023/10/16 00:39:37;;;;;;;7.30;3.50;;;;;;;19.97;56.04;99517.15;109955;1278;21941;-67
2023/10/16 00:42:07;;;;;;;10.90;4.40;;;;;;;19.86;55.24;99523.48;109953;1286;22015;-67
2023/10/16 00:44:33;;;;;;;7.60;3.30;;;;;;;19.72;54.88;99537.16;109955;1286;21949;-59
2023/10/16 00:47:04;;;;;;;7.90;2.40;;;;;;;19.59;54.45;99549.96;109964;1278;21952;-69
2023/10/16 00:49:31;;;;;;;10.60;2.20;;;;;;;19.45;54.10;99559.00;109952;1279;22470;-68
2023/10/16 00:51:57;;;;;;;8.90;2.50;;;;;;;19.30;53.98;99560.63;109917;1280;21925;-69
2023/10/16 00:54:28;;;;;;;7.70;2.30;;;;;;;19.18;54.21;99563.69;109946;1273;22009;-66
2023/10/16 00:56:53;;;;;;;7.30;2.40;;;;;;;19.12;54.50;99566.54;109957;1279;21935;-58
2023/10/16 00:59:23;;;;;;;9.20;2.50;;;;;;;19.09;54.71;99563.14;109964;1278;22005;-68
2023/10/16 01:01:51;;;;;;;8.70;2.10;;;;;;;19.06;54.90;99563.84;109954;1273;21920;-69
2023/10/16 01:04:19;;;;;;;7.10;1.20;;;;;;;19.03;55.02;99564.74;109958;1279;22339;-65
2023/10/16 01:06:46;;;;;;;8.60;0.80;;;;;;;18.88;54.70;99571.30;109900;1276;21940;-68
2023/10/16 01:09:22;;;;;;;46.50;2.00;;;;;;;18.58;54.43;99589.94;109949;1273;22393;-58
2023/10/16 01:11:52;;;;;;;22.60;1.20;;;;;;;18.14;53.89;99591.19;109969;1279;21882;-68
2023/10/16 01:14:17;;;;;;;6.00;0.40;;;;;;;17.77;53.97;99604.01;109965;1286;21930;-62
2023/10/16 01:16:43;;;;;;;23.10;0.90;;;;;;;17.49;54.27;99612.61;109960;1286;21953;-58
2023/10/16 01:19:09;;;;;;;54.70;3.20;;;;;;;17.16;54.86;99620.72;109865;1280;21965;-67
2023/10/16 01:21:35;;;;;;;11.80;1.00;;;;;;;16.91;54.94;99623.90;109913;1276;21848;-59
2023/10/16 01:24:03;;;;;;;13.10;1.20;;;;;;;16.85;55.37;99634.13;109941;1286;21864;-68
2023/10/16 01:26:30;;;;;;;26.80;1.90;;;;;;;16.77;55.47;99642.13;109166;1279;1002040;-67
2023/10/16 01:28:55;;;;;;;11.50;0.30;;;;;;;16.65;55.72;99633.81;109952;1279;22003;-58
2023/10/16 01:31:21;;;;;;;3.00;0.30;;;;;;;16.56;56.10;99639.79;109973;1279;21962;-68
2023/10/16 01:33:51;;;;;;;4.40;0.60;;;;;;;16.47;56.53;99647.11;109962;1286;22270;-68
2023/10/16 01:36:16;;;;;;;2.40;1.00;;;;;;;16.41;56.93;99654.67;109958;1276;21905;-67
2023/10/16 01:38:42;;;;;;;3.60;0.20;;;;;;;16.37;57.25;99662.27;109956;1279;21949;-58
2023/10/16 01:41:14;;;;;;;0.70;0.00;;;;;;;16.31;57.42;99667.52;109966;1279;21915;-59
2023/10/16 01:43:44;;;;;;;6.00;0.10;;;;;;;16.24;57.87;99667.70;109969;1279;21930;-67
2023/10/16 01:46:12;;;;;;;2.70;0.40;;;;;;;16.15;58.15;99664.59;109944;1279;21982;-68
2023/10/16 01:48:42;;;;;;;0.30;0.10;;;;;;;16.08;58.40;99657.67;109964;1277;22326;-69
2023/10/16 01:51:11;;;;;;;1.90;0.10;;;;;;;16.00;58.61;99657.14;109963;1276;21941;-58
2023/10/16 01:53:40;;;;;;;0.90;0.10;;;;;;;15.89;59.36;99661.30;109946;1286;21968;-67
2023/10/16 01:56:12;;;;;;;1.20;0.20;;;;;;;15.75;59.61;99658.73;109983;1279;21940;-59
2023/10/16 01:58:45;;;;;;;2.50;0.10;;;;;;;15.64;60.42;99659.23;109967;1279;22216;-67
2023/10/16 02:01:11;;;;;;;0.90;0.30;;;;;;;15.57;60.11;99657.60;109971;1279;21973;-59
2023/10/16 02:03:37;;;;;;;2.10;0.30;;;;;;;15.51;59.95;99652.92;109957;1276;21953;-59
2023/10/16 02:06:03;;;;;;;0.80;0.20;;;;;;;15.43;59.95;99664.39;109962;1280;22406;-58
2023/10/16 02:08:29;;;;;;;1.20;0.20;;;;;;;15.40;60.09;99667.02;109967;1279;22034;-64
2023/10/16 02:10:54;;;;;;;2.90;0.40;;;;;;;15.35;60.18;99678.36;109976;1286;21933;-64
2023/10/16 02:13:20;;;;;;;1.80;0.20;;;;;;;15.28;59.98;99682.55;109953;1279;21936;-59
2023/10/16 02:15:47;;;;;;;0.60;0.10;;;;;;;15.24;59.86;99683.58;109959;1286;21863;-61
2023/10/16 02:18:22;;;;;;;3.50;0.50;;;;;;;15.22;59.76;99690.74;109957;1283;21887;-64
2023/10/16 02:20:49;;;;;;;2.60;0.30;;;;;;;15.17;59.84;99695.73;109959;1286;21929;-62
2023/10/16 02:23:16;;;;;;;2.60;0.30;;;;;;;15.11;60.14;99695.80;109957;1286;21944;-62
2023/10/16 02:25:42;;;;;;;5.50;0.50;;;;;;;15.04;60.03;99687.96;109969;1279;21949;-63
2023/10/16 02:28:08;;;;;;;2.70;0.20;;;;;;;15.00;60.15;99673.83;109935;1286;21853;-62
2023/10/16 02:30:38;;;;;;;4.20;0.70;;;;;;;14.97;60.35;99670.05;109946;1286;22092;-62
2023/10/16 02:33:12;;;;;;;2.00;0.40;;;;;;;14.96;60.52;99659.48;109963;1286;21959;-65
2023/10/16 02:35:42;;;;;;;2.40;0.50;;;;;;;14.95;60.58;99643.10;109944;1286;22001;-64
2023/10/16 02:38:14;;;;;;;3.30;0.40;;;;;;;14.93;60.51;99639.34;109971;1286;21946;-61
2023/10/16 02:40:43;;;;;;;2.30;0.40;;;;;;;14.91;60.79;99647.34;109942;1286;21937;-62
2023/10/16 02:43:18;;;;;;;4.70;0.40;;;;;;;14.87;60.93;99665.33;109962;1286;21942;-63
2023/10/16 02:45:51;;;;;;;2.20;0.70;;;;;;;14.86;60.93;99683.55;109953;1286;21871;-64
2023/10/16 02:48:20;;;;;;;1.30;0.40;;;;;;;14.85;61.04;99706.41;109952;1286;21934;-63
2023/10/16 02:51:06;;;;;;;1.30;0.30;;;;;;;14.83;61.13;99710.55;109958;1284;22013;-62
2023/10/16 02:53:34;;;;;;;0.40;0.20;;;;;;;14.81;61.29;99711.86;109944;1286;21921;-64
2023/10/16 02:56:08;;;;;;;4.10;0.30;;;;;;;14.81;61.61;99711.52;109951;1283;22014;-62
2023/10/16 02:58:42;;;;;;;1.80;0.40;;;;;;;14.77;61.62;99714.70;109954;1286;21915;-62
2023/10/16 03:01:14;;;;;;;3.10;0.40;;;;;;;14.71;61.90;99724.09;109954;1286;21997;-63
2023/10/16 03:03:43;;;;;;;2.80;0.60;;;;;;;14.66;61.82;99727.27;109949;1285;21941;-63
2023/10/16 03:06:09;;;;;;;3.20;0.40;;;;;;;14.65;62.28;99722.91;109946;1286;21952;-62
2023/10/16 03:08:36;;;;;;;2.90;0.40;;;;;;;14.59;62.66;99728.94;109960;1286;21943;-62
2023/10/16 03:11:06;;;;;;;2.70;0.30;;;;;;;14.54;62.76;99735.51;109962;1275;21946;-64
2023/10/16 03:13:35;;;;;;;3.80;0.60;;;;;;;14.47;62.86;99739.30;109914;1284;21905;-66
2023/10/16 03:18:48;;;;;;;3.00;0.60;;;;;;;14.41;63.29;99743.94;109925;1284;22003;-67
2023/10/16 03:23:43;;;;;;;2.60;0.40;;;;;;;14.42;63.37;99754.14;109929;1286;21953;-66
2023/10/16 03:26:19;;;;;;;5.40;0.50;;;;;;;14.44;63.35;99761.66;109919;1283;21933;-62
2023/10/16 03:28:44;;;;;;;1.80;0.40;;;;;;;14.43;63.30;99767.85;109905;1286;21978;-66
2023/10/16 03:31:11;;;;;;;2.10;0.40;;;;;;;14.41;63.53;99763.51;109947;1286;21933;-62
2023/10/16 03:33:38;;;;;;;2.80;0.40;;;;;;;14.37;63.65;99760.48;109934;1286;21960;-62
2023/10/16 03:36:04;;;;;;;2.10;0.30;;;;;;;14.36;63.42;99749.08;109920;1286;21963;-63
2023/10/16 03:38:36;;;;;;;8.40;0.70;;;;;;;14.35;63.56;99744.37;109941;1286;21983;-63
2023/10/16 03:41:11;;;;;;;1.10;0.20;;;;;;;14.31;63.49;99744.50;109939;1286;21942;-62
2023/10/16 03:43:42;;;;;;;4.50;0.40;;;;;;;14.27;63.41;99744.64;109887;1287;21924;-67
2023/10/16 03:46:11;;;;;;;1.70;0.40;;;;;;;14.20;63.45;99748.23;109897;1287;21947;-62
2023/10/16 03:48:39;;;;;;;3.20;0.30;;;;;;;14.05;62.99;99759.05;109922;1287;21951;-63
2023/10/16 03:51:08;;;;;;;4.50;0.20;;;;;;;13.87;63.03;99770.78;109894;1279;21939;-65
2023/10/16 03:53:35;;;;;;;3.60;0.50;;;;;;;13.76;63.25;99764.84;109894;1285;21982;-68
2023/10/16 03:56:02;;;;;;;4.80;0.40;;;;;;;13.69;63.23;99756.64;109895;1287;21963;-65
2023/10/16 03:58:27;;;;;;;4.70;0.70;;;;;;;13.63;63.31;99752.57;109908;1284;21843;-66
2023/10/16 04:00:53;;;;;;;1.80;0.30;;;;;;;13.61;63.22;99756.02;109897;1287;21973;-63
2023/10/16 04:03:19;;;;;;;9.80;2.10;;;;;;;13.57;63.54;99764.27;109918;1276;21849;-65
2023/10/16 04:05:46;;;;;;;1.70;0.20;;;;;;;13.60;63.90;99768.73;109872;1279;21977;-64
2023/10/16 04:08:14;;;;;;;5.20;0.30;;;;;;;13.61;63.31;99769.58;109905;1287;22399;-64
2023/10/16 04:10:48;;;;;;;8.30;1.60;;;;;;;13.62;63.70;99769.02;109896;1287;21935;-64
2023/10/16 04:13:15;;;;;;;3.80;0.50;;;;;;;13.67;63.78;99770.63;109914;1282;21856;-64
2023/10/16 04:20:56;;;;;;;2.20;0.60;;;;;;;13.63;63.45;99806.70;109918;1287;22391;-63
2023/10/16 04:23:37;;;;;;;6.60;0.60;;;;;;;13.53;63.17;99815.66;109911;1287;21993;-65
2023/10/16 04:31:44;;;;;;;2.00;0.50;;;;;;;13.28;63.05;99809.23;109914;1276;21942;-63
2023/10/16 04:48:06;;;;;;;2.50;0.50;;;;;;;12.87;63.69;99896.11;109904;1287;21858;-64
2023/10/16 05:03:35;;;;;;;4.20;0.70;;;;;;;12.60;63.53;99958.64;109900;1287;21877;-65
2023/10/16 05:11:32;;;;;;;7.60;5.50;;;;;;;12.48;62.75;99987.67;109887;1279;21946;-64
2023/10/16 05:16:38;;;;;;;1.70;1.10;;;;;;;12.34;62.56;100008.95;109878;1276;22027;-64
2023/10/16 05:19:15;;;;;;;0.90;0.40;;;;;;;12.32;63.09;100018.52;109920;1287;21951;-65
2023/10/16 06:16:17;;;;;;;1.60;0.80;;;;;;;12.33;63.41;100087.64;109860;1286;22012;-66
2023/10/16 06:18:47;;;;;;;2.40;0.70;;;;;;;12.35;63.36;100090.58;109932;1280;21973;-65
2023/10/16 06:21:15;;;;;;;3.30;0.80;;;;;;;12.35;63.59;100093.39;109934;1286;22032;-66
2023/10/16 06:23:42;;;;;;;2.50;0.50;;;;;;;12.33;63.87;100092.02;109930;1286;21987;-62
2023/10/16 06:26:09;;;;;;;2.20;0.60;;;;;;;12.37;64.23;100098.63;109940;1286;21954;-66
2023/10/16 06:28:35;;;;;;;1.10;0.80;;;;;;;12.41;64.24;100106.96;109920;1274;22002;-62
2023/10/16 06:31:01;;;;;;;2.50;0.60;;;;;;;12.43;64.64;100093.18;109936;1276;21962;-63
2023/10/16 06:33:28;;;;;;;3.00;0.60;;;;;;;12.53;65.34;100088.36;109852;1275;21999;-62
2023/10/16 06:35:54;;;;;;;3.20;0.80;;;;;;;12.69;65.88;100102.75;109860;1286;22053;-62
2023/10/16 06:38:21;;;;;;;0.90;0.30;;;;;;;12.84;65.63;100117.86;109925;1279;21966;-64
2023/10/16 06:40:47;;;;;;;3.00;1.10;;;;;;;12.96;65.54;100122.15;109925;1286;21965;-63
2023/10/16 06:43:14;;;;;;;1.90;0.40;;;;;;;13.06;65.72;100125.40;109926;1283;21966;-63
2023/10/16 06:45:41;;;;;;;1.60;0.40;;;;;;;13.15;65.80;100124.98;109920;1286;22530;-62
2023/10/16 06:48:15;;;;;;;0.90;0.50;;;;;;;13.25;65.50;100125.60;109905;1286;21974;-62
2023/10/16 06:51:03;;;;;;;1.60;0.50;;;;;;;13.28;65.17;100131.66;109804;1286;21935;-61
2023/10/16 06:53:30;;;;;;;2.10;0.50;;;;;;;13.39;65.50;100132.45;109947;1287;22357;-63
2023/10/16 06:55:55;;;;;;;3.30;0.50;;;;;;;13.46;64.99;100130.16;109961;1279;21925;-63
2023/10/16 06:58:21;;;;;;;2.70;0.60;;;;;;;13.44;64.29;100134.08;109897;1287;21971;-63
2023/10/16 07:00:48;;;;;;;2.30;0.70;;;;;;;13.42;64.08;100147.21;109896;1287;21913;-63
2023/10/16 07:03:14;;;;;;;2.30;0.50;;;;;;;13.40;64.03;100152.69;109903;1287;22004;-63
2023/10/16 07:05:42;;;;;;;1.40;0.50;;;;;;;13.41;64.06;100151.80;109894;1287;21924;-63
2023/10/16 07:08:18;;;;;;;1.50;0.50;;;;;;;13.39;63.84;100155.87;109900;1287;21980;-63
2023/10/16 07:10:51;;;;;;;1.30;0.50;;;;;;;13.36;63.89;100159.29;109919;1287;21926;-64
2023/10/16 07:13:27;;;;;;;1.60;0.60;;;;;;;13.36;63.97;100146.43;109900;1285;21950;-63
2023/10/16 07:16:00;;;;;;;1.60;0.60;;;;;;;13.40;64.16;100150.05;109913;1279;21944;-63
2023/10/16 07:18:26;;;;;;;1.80;0.60;;;;;;;13.44;64.24;100170.74;109918;1275;21968;-64
2023/10/16 07:21:17;;;;;;;5.40;1.70;;;;;;;13.53;64.55;100173.50;109905;1287;22004;-62
2023/10/16 07:23:39;;;;;;;14.20;5.70;;;;;;;13.59;64.22;100177.21;109907;1287;21937;-62
2023/10/16 07:26:06;;;;;;;6.20;1.50;;;;;;;13.61;63.99;100180.86;109894;1279;22014;-63
2023/10/16 07:28:32;;;;;;;3.60;0.80;;;;;;;13.65;63.99;100190.11;109906;1287;21944;-65
2023/10/16 07:31:05;;;;;;;2.70;0.80;;;;;;;13.66;63.72;100197.84;109900;1276;21994;-62
2023/10/16 07:33:31;;;;;;;2.60;0.90;;;;;;;13.67;63.46;100201.67;109902;1287;21861;-65
2023/10/16 07:35:59;;;;;;;5.10;1.30;;;;;;;13.68;63.37;100202.53;109889;1287;21855;-62
2023/10/16 07:38:28;;;;;;;2.30;1.30;;;;;;;13.74;63.84;100218.92;109917;1276;21969;-65
2023/10/16 07:41:02;;;;;;;3.40;1.20;;;;;;;13.82;63.80;100228.08;109879;1287;21923;-65
2023/10/16 07:43:29;;;;;;;6.80;3.90;;;;;;;13.86;63.60;100217.73;109895;1284;21969;-66
2023/10/16 07:48:44;;;;;;;6.10;2.90;;;;;;;13.94;64.08;100215.02;109898;1286;22005;-65
2023/10/16 07:51:15;;;;;;;4.50;1.20;;;;;;;14.06;64.52;100207.80;109916;1276;21998;-61
2023/10/16 07:53:43;;;;;;;2.00;1.00;;;;;;;14.15;64.04;100197.98;109848;1285;22429;-66
2023/10/16 07:59:06;;;;;;;5.10;1.30;;;;;;;14.23;63.88;100208.54;109920;1286;21967;-61
2023/10/16 08:01:42;;;;;;;3.60;1.00;;;;;;;14.30;63.98;100210.43;109925;1286;21937;-67
2023/10/16 08:04:43;;;;;;;5.40;3.00;;;;;;;14.40;63.60;100217.89;109931;1285;21949;-60
2023/10/16 08:07:04;;;;;;;6.30;1.70;;;;;;;14.47;63.04;100221.75;109125;1282;1002876;-61
2023/10/16 08:12:18;;;;;;;3.40;1.60;;;;;;;14.56;62.76;100221.98;109922;1283;21958;-68
2023/10/16 08:14:45;;;;;;;2.70;1.20;;;;;;;14.60;62.54;100236.86;109659;1281;21944;-60
2023/10/16 08:17:17;;;;;;;4.20;1.90;;;;;;;14.65;62.74;100242.91;109943;1275;21947;-59
2023/10/16 08:19:46;;;;;;;3.90;2.00;;;;;;;14.76;62.95;100236.92;109949;1286;22238;-59
2023/10/16 08:22:15;;;;;;;3.70;1.70;;;;;;;14.87;62.92;100231.30;109969;1275;21922;-70
2023/10/16 08:24:44;;;;;;;3.60;1.30;;;;;;;14.97;62.98;100223.20;109933;1279;22018;-59
2023/10/16 08:27:19;;;;;;;4.00;1.30;;;;;;;15.05;62.66;100231.92;109945;1286;21939;-58
2023/10/16 08:29:58;;;;;;;3.60;1.30;;;;;;;15.14;62.98;100233.58;109950;1279;21969;-59
2023/10/16 08:35:09;;;;;;;6.60;1.80;;;;;;;15.36;62.60;100242.92;109935;1284;22007;-72
2023/10/16 08:37:40;;;;;;;7.10;2.30;;;;;;;15.43;61.98;100249.44;109972;1286;21882;-59
2023/10/16 08:40:19;;;;;;;3.50;1.90;;;;;;;15.46;61.72;100255.48;109188;1286;1005867;-59
2023/10/16 08:42:49;;;;;;;7.60;2.00;;;;;;;15.49;61.54;100260.71;109929;1286;21916;-58
2023/10/16 08:45:14;;;;;;;3.40;1.70;;;;;;;15.54;61.70;100259.66;109954;1286;22420;-64
2023/10/16 08:47:46;;;;;;;6.40;2.00;;;;;;;15.58;60.97;100258.64;109878;1282;22005;-58
2023/10/16 08:50:17;;;;;;;5.40;1.90;;;;;;;15.58;60.72;100259.48;109848;1286;21908;-60
2023/10/16 08:52:58;;;;;;;4.70;1.70;;;;;;;15.64;61.20;100261.77;107603;1286;1002656;-73
2023/10/16 08:55:27;;;;;;;7.10;1.60;;;;;;;15.78;61.54;100268.87;109920;1286;21884;-71
2023/10/16 08:57:53;;;;;;;4.90;1.50;;;;;;;15.91;61.14;100265.44;109888;1286;21935;-59
2023/10/16 09:00:22;;;;;;;4.50;1.60;;;;;;;15.99;60.49;100260.36;109896;1286;22000;-73
2023/10/16 09:02:51;;;;;;;5.80;1.60;;;;;;;16.08;60.75;100268.39;109934;1286;21869;-58
2023/10/16 09:05:17;;;;;;;4.70;1.50;;;;;;;16.21;61.00;100269.85;109918;1286;21991;-72
2023/10/16 09:07:43;;;;;;;8.20;2.20;;;;;;;16.36;60.34;100269.83;109794;1286;21994;-58
2023/10/16 09:10:09;;;;;;;8.00;2.00;;;;;;;16.42;59.40;100277.17;109843;1282;21861;-58
2023/10/16 09:12:45;;;;;;;4.40;1.30;;;;;;;16.46;59.33;100288.21;109940;1282;21963;-59
2023/10/16 09:15:12;;;;;;;8.30;2.20;;;;;;;16.52;58.93;100284.64;109879;1287;21962;-59
2023/10/16 09:17:38;;;;;;;4.40;1.50;;;;;;;16.55;58.74;100291.39;109928;1281;21960;-72
2023/10/16 09:20:13;;;;;;;6.30;1.80;;;;;;;16.58;57.95;100286.65;109945;1286;21943;-60
2023/10/16 09:22:46;;;;;;;4.50;2.20;;;;;;;16.58;57.07;100282.05;109953;1284;21949;-70
2023/10/16 09:25:22;;;;;;;7.90;1.50;;;;;;;16.67;57.26;100280.67;109860;1286;21945;-71
2023/10/16 09:27:49;;;;;;;8.20;1.90;;;;;;;16.78;57.50;100282.02;109936;1286;21886;-75
2023/10/16 09:30:15;;;;;;;3.90;1.50;;;;;;;16.94;57.27;100285.48;109843;1286;21999;-59
2023/10/16 09:32:41;;;;;;;6.90;1.40;;;;;;;17.04;56.09;100297.48;109914;1285;21991;-80
2023/10/16 09:35:12;;;;;;;7.40;1.50;;;;;;;17.02;55.37;100300.92;109852;1283;22391;-59
2023/10/16 09:37:40;;;;;;;8.50;1.70;;;;;;;17.01;54.30;100296.35;109918;1281;22432;-59
2023/10/16 09:40:20;;;;;;;3.70;1.50;;;;;;;17.08;54.24;100295.72;109906;1286;21987;-60
2023/10/16 09:42:55;;;;;;;6.30;1.50;;;;;;;17.23;54.41;100301.34;109935;1286;21973;-77
2023/10/16 09:45:23;;;;;;;5.30;1.30;;;;;;;17.34;54.03;100293.77;109925;1286;21982;-59
2023/10/16 09:47:54;;;;;;;5.50;1.50;;;;;;;17.44;54.15;100293.88;109919;1286;21927;-73
2023/10/16 09:50:20;;;;;;;5.70;1.50;;;;;;;17.52;53.43;100299.05;109900;1286;21949;-76
2023/10/16 09:52:47;;;;;;;6.10;1.80;;;;;;;17.63;53.08;100297.55;109919;1286;22009;-59
2023/10/16 09:55:13;;;;;;;5.20;1.60;;;;;;;17.78;53.16;100291.04;109917;1286;22024;-59
2023/10/16 09:57:54;;;;;;;5.60;1.70;;;;;;;17.96;52.94;100292.75;109919;1286;21909;-74
2023/10/16 10:00:28;;;;;;;6.60;1.80;;;;;;;18.17;52.28;100285.77;109960;1275;21950;-59
2023/10/16 10:03:13;;;;;;;3.90;1.30;;;;;;;18.39;52.22;100286.01;109955;1275;22013;-74
2023/10/16 10:05:55;;;;;;;3.80;1.30;;;;;;;18.51;51.58;100292.23;109892;1284;22000;-74
2023/10/16 10:08:39;;;;;;;5.30;1.70;;;;;;;18.55;50.01;100286.20;109892;1286;21975;-77
2023/10/16 10:11:16;;;;;;;6.10;1.40;;;;;;;18.64;50.14;100282.38;109908;1286;21954;-60
2023/10/16 10:13:43;;;;;;;4.50;2.00;;;;;;;18.72;49.53;100287.69;109846;1287;21893;-78
2023/10/16 10:16:12;;;;;;;4.60;1.40;;;;;;;18.85;50.09;100293.48;109826;1287;21937;-59
2023/10/16 10:18:45;;;;;;;4.60;1.40;;;;;;;18.96;49.68;100291.55;109903;1287;21955;-73
2023/10/16 10:21:18;;;;;;;5.30;1.60;;;;;;;19.04;49.27;100289.05;109900;1279;22052;-59
2023/10/16 10:23:46;;;;;;;7.90;1.50;;;;;;;19.13;49.11;100296.77;109926;1286;21866;-77
2023/10/16 10:26:17;;;;;;;4.00;1.40;;;;;;;19.11;46.74;100302.03;109912;1286;22008;-60
2023/10/16 10:28:45;;;;;;;4.60;1.20;;;;;;;18.94;47.16;100302.84;109917;1286;21952;-77
2023/10/16 10:31:12;;;;;;;6.00;1.40;;;;;;;18.86;47.29;100303.73;109942;1286;21957;-59
2023/10/16 10:33:42;;;;;;;4.10;1.20;;;;;;;18.91;47.18;100302.43;109920;1280;22012;-59
2023/10/16 10:36:43;;;;;;;3.50;1.10;;;;;;;19.01;46.02;100308.76;109908;1286;22150;-73
2023/10/16 10:39:21;;;;;;;7.50;1.20;;;;;;;19.17;45.66;100309.77;109916;1285;21863;-60
2023/10/16 10:41:54;;;;;;;4.70;1.40;;;;;;;19.20;44.56;100313.35;109855;1287;22020;-59
2023/10/16 10:44:33;;;;;;;4.20;1.40;;;;;;;19.12;43.75;100315.52;109895;1286;21859;-59
2023/10/16 10:47:04;;;;;;;3.80;1.00;;;;;;;19.19;44.86;100311.44;109957;1279;22289;-59
2023/10/16 10:49:33;;;;;;;3.00;1.10;;;;;;;19.22;43.95;100313.74;109954;1286;22023;-59
2023/10/16 10:52:02;;;;;;;4.10;1.20;;;;;;;19.23;43.96;100315.15;109937;1283;21963;-59
2023/10/16 10:54:28;;;;;;;3.70;1.10;;;;;;;19.27;44.20;100317.06;109961;1275;22225;-59
2023/10/16 10:56:59;;;;;;;3.40;1.20;;;;;;;19.29;43.68;100331.73;109948;1286;21845;-70
2023/10/16 10:59:39;;;;;;;4.40;1.20;;;;;;;19.20;43.42;100332.70;109944;1286;21878;-59
2023/10/16 11:04:58;;;;;;;2.80;0.80;;;;;;;18.70;42.52;100338.25;109939;1286;21942;-69
2023/10/16 11:07:45;;;;;;;3.90;1.10;;;;;;;18.42;42.96;100341.69;109947;1286;21906;-59
2023/10/16 11:10:13;;;;;;;2.40;1.00;;;;;;;18.35;42.27;100345.21;109939;1286;21956;-71
2023/10/16 11:12:39;;;;;;;4.60;1.10;;;;;;;18.52;42.22;100343.38;109938;1286;21929;-58
2023/10/16 11:15:15;;;;;;;6.20;1.20;;;;;;;18.69;42.03;100345.41;109927;1286;21951;-68
2023/10/16 11:17:43;;;;;;;3.70;0.80;;;;;;;18.79;42.38;100343.02;109957;1286;21926;-60
2023/10/16 11:22:43;;;;;;;3.50;1.40;;;;;;;18.72;42.19;100351.47;109879;1287;21991;-69
2023/10/16 11:25:12;;;;;;;3.50;1.60;;;;;;;18.79;42.21;100350.65;109881;1287;22365;-59
2023/10/16 11:27:42;;;;;;;3.50;1.20;;;;;;;18.90;41.56;100348.37;109774;1287;181270;-70
2023/10/16 11:30:12;;;;;;;6.60;1.60;;;;;;;18.99;41.51;100347.76;109891;1282;22301;-59
2023/10/16 11:32:45;;;;;;;;;;;;;;;19.09;40.86;100340.70;109970;1287;21981;-58
2023/10/16 11:35:15;;;;;;;4.30;1.10;;;;;;;19.19;41.11;100346.27;109908;1287;21930;-71
2023/10/16 11:37:44;;;;;;;6.30;1.40;;;;;;;19.31;40.94;100349.63;109923;1286;21957;-59
2023/10/16 11:40:18;;;;;;;6.50;1.30;;;;;;;19.48;41.40;100352.86;109918;1287;21923;-72
2023/10/16 11:42:52;;;;;;;3.90;0.90;;;;;;;19.69;41.48;100351.65;109909;1286;21957;-70
2023/10/16 11:45:21;;;;;;;4.50;1.10;;;;;;;19.82;40.57;100354.39;109896;1286;21873;-72
2023/10/16 11:48:18;;;;;;;3.50;1.00;;;;;;;19.78;39.41;100355.27;109913;1287;21959;-66
2023/10/16 11:50:38;;;;;;;5.20;1.20;;;;;;;19.68;39.54;100362.72;109914;1287;21998;-69
2023/10/16 11:53:07;;;;;;;5.20;1.20;;;;;;;19.43;39.07;100364.48;109913;1286;22426;-70
2023/10/16 11:55:39;;;;;;;3.80;1.00;;;;;;;19.22;40.11;100373.20;109919;1286;21979;-67
2023/10/16 11:58:07;;;;;;;6.00;1.50;;;;;;;19.11;40.79;100380.09;109938;1284;21925;-59
2023/10/16 12:00:35;;;;;;;4.90;1.30;;;;;;;19.12;41.56;100380.23;109926;1278;22000;-70
2023/10/16 12:03:07;;;;;;;5.00;1.50;;;;;;;19.07;41.49;100385.27;109945;1286;21945;-59
2023/10/16 12:05:35;;;;;;;6.00;1.40;;;;;;;18.97;41.76;100390.54;109941;1286;21794;-70
2023/10/16 12:08:02;;;;;;;3.90;1.50;;;;;;;18.94;41.85;100397.92;109884;1286;22003;-70
2023/10/16 12:10:29;;;;;;;6.90;1.20;;;;;;;18.91;42.08;100400.55;109330;1286;23351;-60
2023/10/16 12:12:55;;;;;;;6.40;1.40;;;;;;;18.91;42.10;100402.88;109951;1279;21987;-60
2023/10/16 12:15:24;;;;;;;4.00;0.80;;;;;;;18.93;41.81;100397.48;109910;1283;21876;-71
2023/10/16 12:17:49;;;;;;;4.80;1.00;;;;;;;18.97;41.84;100399.58;109833;1286;21969;-70
2023/10/16 12:20:16;;;;;;;8.80;1.90;;;;;;;19.07;41.55;100400.38;109148;1284;1002164;-70
2023/10/16 12:22:44;;;;;;;4.70;1.20;;;;;;;19.13;41.48;100398.16;109897;1286;22042;-71
2023/10/16 12:25:09;;;;;;;4.70;1.10;;;;;;;19.15;41.36;100405.71;109922;1286;21981;-71
2023/10/16 12:27:38;;;;;;;4.20;1.20;;;;;;;19.13;40.59;100410.95;109899;1285;22043;-60
2023/10/16 12:30:05;;;;;;;4.70;1.30;;;;;;;19.19;40.44;100414.06;109914;1284;21877;-59
2023/10/16 12:32:32;;;;;;;5.80;1.10;;;;;;;19.24;40.32;100420.73;109916;1285;21989;-60
2023/10/16 12:35:00;;;;;;;4.40;1.30;;;;;;;19.28;40.62;100420.76;109925;1284;21970;-60
2023/10/16 12:37:28;;;;;;;4.30;1.40;;;;;;;19.30;40.66;100422.92;109918;1287;22838;-60
2023/10/16 12:39:55;;;;;;;6.00;1.30;;;;;;;19.34;40.67;100421.90;109162;1287;1002065;-70
2023/10/16 12:42:21;;;;;;;8.80;2.80;;;;;;;19.31;40.68;100428.62;109866;1287;22280;-60
2023/10/16 12:44:46;;;;;;;7.70;1.50;;;;;;;19.17;40.55;100436.40;109914;1287;21931;-69
2023/10/16 12:47:15;;;;;;;5.60;1.80;;;;;;;18.90;40.50;100447.55;109913;1287;21956;-74
2023/10/16 12:49:40;;;;;;;4.10;1.90;;;;;;;18.58;40.73;100447.76;109913;1287;21925;-59
2023/10/16 12:52:07;;;;;;;5.90;1.80;;;;;;;18.32;41.08;100461.67;109916;1286;21966;-70
2023/10/16 12:54:32;;;;;;;6.40;1.70;;;;;;;18.20;41.38;100463.42;109931;1284;21951;-70
2023/10/16 12:56:59;;;;;;;4.80;1.60;;;;;;;18.22;41.77;100459.79;109943;1286;22312;-61
2023/10/16 12:59:27;;;;;;;4.00;1.40;;;;;;;18.33;41.95;100463.42;109930;1286;21966;-60
2023/10/16 13:01:53;;;;;;;5.10;1.50;;;;;;;18.46;41.45;100460.70;109931;1286;21956;-59
2023/10/16 13:04:19;;;;;;;6.30;1.70;;;;;;;18.60;41.30;100464.55;109935;1286;21972;-59
2023/10/16 13:06:45;;;;;;;5.30;1.50;;;;;;;18.72;40.42;100467.20;109948;1286;21971;-71
2023/10/16 13:09:15;;;;;;;4.30;1.30;;;;;;;18.78;40.36;100469.40;109880;1284;21867;-70
2023/10/16 13:11:41;;;;;;;3.00;1.30;;;;;;;18.75;39.91;100469.38;109877;1284;22345;-70
2023/10/16 13:14:07;;;;;;;3.60;1.10;;;;;;;18.62;40.19;100472.64;109886;1286;22046;-71
2023/10/16 13:16:33;;;;;;;5.80;1.40;;;;;;;18.43;39.98;100476.45;109915;1286;22022;-71
2023/10/16 13:18:59;;;;;;;7.80;1.10;;;;;;;18.21;39.67;100476.69;109925;1286;21971;-74
2023/10/16 13:21:34;;;;;;;6.80;1.20;;;;;;;18.03;39.49;100484.02;109930;1286;22168;-70
2023/10/16 13:24:04;;;;;;;8.10;1.30;;;;;;;17.86;39.33;100488.59;109935;1286;21998;-70
2023/10/16 13:26:35;;;;;;;4.60;1.60;;;;;;;17.75;39.61;100495.43;109950;1286;22462;-60
2023/10/16 13:29:07;;;;;;;4.30;1.40;;;;;;;17.62;38.92;100500.92;109927;1286;22161;-60
2023/10/16 13:31:37;;;;;;;20.70;9.80;;;;;;;17.44;38.72;100496.63;109924;1286;22026;-71
2023/10/16 13:34:07;;;;;;;11.00;5.80;;;;;;;17.37;39.37;100496.75;109933;1286;22065;-71